createdAt,value
2022-12-14T00:01:49.119Z,-0.48
2022-12-14T00:04:18.327Z,-0.55
2022-12-14T00:06:55.041Z,-0.49
2022-12-14T00:09:23.365Z,-0.48
2022-12-14T00:11:53.062Z,-0.42
2022-12-14T00:14:21.101Z,-0.40
2022-12-14T00:16:49.078Z,-0.39
2022-12-14T00:19:17.209Z,-0.39
2022-12-14T00:21:46.065Z,-0.37
2022-12-14T00:24:14.132Z,-0.35
2022-12-14T00:26:42.050Z,-0.34
2022-12-14T00:29:11.862Z,-0.32
2022-12-14T00:31:40.050Z,-0.30
2022-12-14T00:34:08.169Z,-0.28
2022-12-14T00:36:37.840Z,-0.27
2022-12-14T00:39:06.503Z,-0.25
2022-12-14T00:41:34.780Z,-0.26
2022-12-14T00:44:02.821Z,-0.23
2022-12-14T00:46:32.398Z,-0.22
2022-12-14T00:49:00.445Z,-0.24
2022-12-14T00:51:28.849Z,-0.27
2022-12-14T00:53:56.793Z,-0.25
2022-12-14T00:56:24.663Z,-0.25
2022-12-14T00:58:52.983Z,-0.25
2022-12-14T01:01:21.804Z,-0.26
2022-12-14T01:04:11.766Z,-0.24
2022-12-14T01:06:39.701Z,-0.25
2022-12-14T01:09:07.974Z,-0.28
2022-12-14T01:11:36.085Z,-0.31
2022-12-14T01:14:04.056Z,-0.32
2022-12-14T01:16:32.168Z,-0.32
2022-12-14T01:19:02.637Z,-0.33
2022-12-14T01:21:30.691Z,-0.36
2022-12-14T01:24:00.119Z,-0.33
2022-12-14T01:26:29.839Z,-0.33
2022-12-14T01:29:00.044Z,-0.32
2022-12-14T01:31:30.521Z,-0.31
2022-12-14T01:33:58.658Z,-0.32
2022-12-14T01:36:30.466Z,-0.36
2022-12-14T01:39:00.078Z,-0.39
2022-12-14T01:41:30.590Z,-0.43
2022-12-14T01:44:00.283Z,-0.46
2022-12-14T01:46:32.461Z,-0.44
2022-12-14T01:49:10.890Z,-0.43
2022-12-14T01:51:42.650Z,-0.42
2022-12-14T01:54:14.705Z,-0.42
2022-12-14T01:56:46.063Z,-0.42
2022-12-14T01:59:17.766Z,-0.45
2022-12-14T02:01:46.674Z,-0.46
2022-12-14T02:04:18.802Z,-0.50
2022-12-14T02:06:50.254Z,-0.54
2022-12-14T02:09:21.848Z,-0.61
2022-12-14T02:11:59.307Z,-0.64
2022-12-14T02:14:27.929Z,-0.66
2022-12-14T02:16:58.505Z,-0.66
2022-12-14T02:19:26.634Z,-0.68
2022-12-14T02:22:19.559Z,-0.67
2022-12-14T02:25:07.907Z,-0.76
2022-12-14T02:27:56.082Z,-0.75
2022-12-14T02:30:27.588Z,-0.82
2022-12-14T02:33:17.396Z,-0.78
2022-12-14T02:35:49.821Z,-0.77
2022-12-14T02:38:29.616Z,-0.77
2022-12-14T02:41:03.971Z,-0.79
2022-12-14T02:43:38.700Z,-0.82
2022-12-14T02:46:18.173Z,-0.89
2022-12-14T02:48:53.000Z,-0.94
2022-12-14T02:51:25.628Z,-0.94
2022-12-14T02:54:01.727Z,-0.92
2022-12-14T02:56:35.919Z,-0.88
2022-12-14T02:59:07.891Z,-0.85
2022-12-14T03:01:41.869Z,-0.80
2022-12-14T03:04:15.353Z,-0.79
2022-12-14T03:06:55.108Z,-0.77
2022-12-14T03:09:23.379Z,-0.79
2022-12-14T03:11:56.499Z,-0.80
2022-12-14T03:14:28.560Z,-0.83
2022-12-14T03:17:03.645Z,-0.78
2022-12-14T03:19:36.602Z,-0.72
2022-12-14T03:22:10.111Z,-0.70
2022-12-14T03:24:42.406Z,-0.68
2022-12-14T03:27:16.097Z,-0.72
2022-12-14T03:29:48.987Z,-0.74
2022-12-14T03:32:23.582Z,-0.76
2022-12-14T03:34:57.160Z,-0.87
2022-12-14T03:37:34.275Z,-0.79
2022-12-14T03:40:02.372Z,-0.82
2022-12-14T03:42:36.904Z,-0.77
2022-12-14T03:45:19.053Z,-0.73
2022-12-14T03:48:10.851Z,-0.70
2022-12-14T03:50:46.947Z,-0.70
2022-12-14T03:53:20.989Z,-0.73
2022-12-14T03:55:59.957Z,-0.76
2022-12-14T03:58:40.187Z,-0.75
2022-12-14T04:01:15.097Z,-0.72
2022-12-14T04:03:54.190Z,-0.75
2022-12-14T04:06:32.004Z,-0.82
2022-12-14T04:09:09.365Z,-0.77
2022-12-14T04:12:14.947Z,-0.76
2022-12-14T04:15:08.193Z,-0.75
2022-12-14T04:17:56.977Z,-0.83
2022-12-14T04:20:29.369Z,-0.82
2022-12-14T04:23:01.108Z,-0.77
2022-12-14T04:25:50.715Z,-0.74
2022-12-14T04:28:42.525Z,-0.75
2022-12-14T04:31:13.680Z,-0.72
2022-12-14T04:33:49.695Z,-0.70
2022-12-14T04:36:26.442Z,-0.69
2022-12-14T04:38:58.781Z,-0.65
2022-12-14T04:41:32.885Z,-0.71
2022-12-14T04:44:04.501Z,-0.67
2022-12-14T04:46:40.560Z,-0.67
2022-12-14T04:49:17.598Z,-0.66
2022-12-14T04:51:52.966Z,-0.63
2022-12-14T04:54:27.999Z,-0.62
2022-12-14T04:57:02.287Z,-0.65
2022-12-14T04:59:33.403Z,-0.62
2022-12-14T05:02:11.318Z,-0.63
2022-12-14T05:04:56.064Z,-0.59
2022-12-14T05:07:37.837Z,-0.57
2022-12-14T05:10:11.020Z,-0.58
2022-12-14T05:13:41.245Z,-0.56
2022-12-14T05:38:22.673Z,-0.64
2022-12-14T05:45:25.403Z,-0.67
2022-12-14T05:52:01.824Z,-0.62
2022-12-14T05:55:16.546Z,-0.59
2022-12-14T05:58:08.513Z,-0.59
2022-12-14T06:01:33.746Z,-0.58
2022-12-14T08:38:17.761Z,-0.54
2022-12-14T08:40:47.923Z,-0.48
2022-12-14T08:43:21.725Z,-0.48
2022-12-14T08:45:55.302Z,-0.55
2022-12-14T08:48:23.596Z,-0.55
2022-12-14T08:50:51.548Z,-0.50
2022-12-14T08:53:21.147Z,-0.54
2022-12-14T08:55:48.908Z,-0.48
2022-12-14T08:58:16.801Z,-0.53
2022-12-14T09:00:44.680Z,-0.41
2022-12-14T09:03:12.840Z,-0.41
2022-12-14T09:05:40.707Z,-0.38
2022-12-14T09:08:10.767Z,-0.37
2022-12-14T09:10:39.930Z,-0.33
2022-12-14T09:13:07.884Z,-0.28
2022-12-14T09:15:35.660Z,-0.23
2022-12-14T09:18:03.624Z,-0.14
2022-12-14T09:20:31.510Z,-0.10
2022-12-14T09:23:01.567Z,-0.11
2022-12-14T09:25:29.410Z,-0.26
2022-12-14T09:27:58.735Z,-0.32
2022-12-14T09:30:27.163Z,-0.40
2022-12-14T09:32:55.100Z,-0.50
2022-12-14T09:35:23.181Z,-0.49
2022-12-14T09:37:51.121Z,-0.50
2022-12-14T09:40:19.152Z,-0.59
2022-12-14T09:42:57.174Z,-0.60
2022-12-14T09:45:31.113Z,-0.62
2022-12-14T09:48:05.095Z,-0.61
2022-12-14T09:50:33.556Z,-0.68
2022-12-14T09:53:04.117Z,-0.73
2022-12-14T09:55:36.249Z,-0.83
2022-12-14T09:58:13.089Z,-0.75
2022-12-14T10:00:53.138Z,-0.69
2022-12-14T10:03:46.822Z,-0.68
2022-12-14T10:06:34.616Z,-0.65
2022-12-14T10:09:14.303Z,-0.64
2022-12-14T10:11:52.339Z,-0.67
2022-12-14T10:14:27.999Z,-0.63
2022-12-14T10:17:06.113Z,-0.64
2022-12-14T10:19:40.711Z,-0.60
2022-12-14T10:22:14.451Z,-0.59
2022-12-14T10:24:46.216Z,-0.59
2022-12-14T10:27:22.726Z,-0.52
2022-12-14T10:29:56.804Z,-0.48
2022-12-14T10:32:33.422Z,-0.46
2022-12-14T10:35:12.448Z,-0.45
2022-12-14T10:37:44.966Z,-0.39
2022-12-14T10:40:32.957Z,-0.30
2022-12-14T10:43:29.898Z,-0.27
2022-12-14T10:46:11.876Z,-0.28
2022-12-14T10:48:48.906Z,-0.25
2022-12-14T10:51:21.379Z,-0.27
2022-12-14T10:53:51.885Z,-0.26
2022-12-14T10:56:23.241Z,-0.25
2022-12-14T10:59:25.430Z,-0.25
2022-12-14T11:01:58.580Z,-0.25
2022-12-14T11:04:34.715Z,-0.25
2022-12-14T11:07:05.467Z,-0.25
2022-12-14T11:09:33.787Z,-0.26
2022-12-14T11:12:06.372Z,-0.25
2022-12-14T11:14:36.998Z,-0.27
2022-12-14T11:17:05.589Z,-0.31
2022-12-14T11:19:37.528Z,-0.29
2022-12-14T11:22:20.129Z,-0.25
2022-12-14T11:24:51.292Z,-0.23
2022-12-14T11:27:22.499Z,-0.22
2022-12-14T11:29:52.413Z,-0.19
2022-12-14T11:32:23.999Z,-0.17
2022-12-14T11:35:00.913Z,-0.16
2022-12-14T11:37:30.811Z,-0.16
2022-12-14T11:40:01.256Z,-0.18
2022-12-14T11:42:29.601Z,-0.16
2022-12-14T11:45:28.792Z,-0.20
2022-12-14T11:48:17.181Z,-0.15
2022-12-14T11:50:48.345Z,-0.11
2022-12-14T11:53:17.994Z,-0.09
2022-12-14T11:55:50.538Z,-0.13
2022-12-14T11:58:21.890Z,-0.12
2022-12-14T12:00:52.545Z,-0.14
2022-12-14T12:03:25.700Z,-0.10
2022-12-14T12:05:55.832Z,-0.07
2022-12-14T12:08:27.073Z,-0.07
2022-12-14T12:11:01.922Z,-0.04
2022-12-14T12:13:32.533Z,-0.02
2022-12-14T12:16:02.582Z,0.05
2022-12-14T12:18:38.406Z,0.10
2022-12-14T12:21:15.947Z,0.12
2022-12-14T12:23:48.422Z,0.21
2022-12-14T12:26:20.598Z,0.27
2022-12-14T12:28:55.420Z,0.33
2022-12-14T12:31:29.176Z,0.36
2022-12-14T12:34:00.541Z,0.41
2022-12-14T12:36:32.431Z,0.47
2022-12-14T12:39:06.719Z,0.54
2022-12-14T12:41:44.636Z,0.56
2022-12-14T12:44:25.530Z,0.57
2022-12-14T12:49:54.027Z,0.67
2022-12-14T12:52:28.685Z,0.60
2022-12-14T12:55:02.345Z,0.66
2022-12-14T12:57:37.562Z,0.75
2022-12-14T13:00:07.727Z,0.80
2022-12-14T13:02:37.885Z,0.84
2022-12-14T13:05:44.595Z,0.86
2022-12-14T13:08:06.826Z,0.90
2022-12-14T13:10:42.077Z,0.92
2022-12-14T13:13:23.259Z,0.95
2022-12-14T13:15:53.918Z,0.98
2022-12-14T13:18:49.387Z,0.92
2022-12-14T13:21:34.835Z,0.92
2022-12-14T13:24:06.402Z,0.91
2022-12-14T13:26:58.067Z,0.99
2022-12-14T13:29:45.146Z,1.06
2022-12-14T13:32:35.428Z,1.06
2022-12-14T13:35:21.112Z,1.07
2022-12-14T13:38:15.674Z,1.08
2022-12-14T13:41:14.382Z,1.02
2022-12-14T13:44:05.731Z,1.00
2022-12-14T13:46:33.810Z,1.03
2022-12-14T13:49:05.392Z,1.10
2022-12-14T13:51:37.532Z,1.12
2022-12-14T13:54:08.147Z,1.11
2022-12-14T13:56:40.292Z,1.03
2022-12-14T13:59:26.687Z,1.00
2022-12-14T14:01:58.374Z,0.96
2022-12-14T14:04:29.612Z,0.94
2022-12-14T14:07:20.937Z,0.94
2022-12-14T14:10:04.696Z,0.97
2022-12-14T14:12:43.972Z,1.04
2022-12-14T14:18:49.661Z,0.99
2022-12-14T14:22:21.064Z,0.95
2022-12-14T14:24:30.287Z,0.93
2022-12-14T14:27:10.555Z,0.96
2022-12-14T14:29:45.885Z,0.91
2022-12-14T14:32:33.446Z,0.95
2022-12-14T14:35:02.998Z,0.95
2022-12-14T14:37:33.694Z,0.92
2022-12-14T14:40:38.278Z,0.86
2022-12-14T14:43:29.722Z,0.85
2022-12-14T14:46:03.452Z,0.83
2022-12-14T14:48:35.437Z,0.83
2022-12-14T14:51:17.463Z,0.82
2022-12-14T14:53:45.762Z,0.80
2022-12-14T14:56:40.058Z,0.76
2022-12-14T14:59:33.904Z,0.75
2022-12-14T15:02:09.586Z,0.74
2022-12-14T15:04:45.753Z,0.68
2022-12-14T15:07:18.670Z,0.65
2022-12-14T15:09:51.999Z,0.61
2022-12-14T15:12:30.106Z,0.62
2022-12-14T15:15:02.303Z,0.63
2022-12-14T15:17:31.807Z,0.57
2022-12-14T15:20:02.681Z,0.54
2022-12-14T15:22:33.334Z,0.56
2022-12-14T15:25:15.340Z,0.54
2022-12-14T15:27:43.264Z,0.48
2022-12-14T15:30:21.063Z,0.43
2022-12-14T15:32:54.534Z,0.39
2022-12-14T15:35:26.211Z,0.36
2022-12-14T15:38:00.217Z,0.38
2022-12-14T15:40:31.021Z,0.38
2022-12-14T15:43:01.322Z,0.34
2022-12-14T15:45:31.566Z,0.28
2022-12-14T15:48:15.212Z,0.23
2022-12-14T15:50:46.756Z,0.19
2022-12-14T15:53:19.651Z,0.15
2022-12-14T15:56:00.300Z,0.16
2022-12-14T15:58:33.627Z,0.13
2022-12-14T16:01:10.524Z,0.07
2022-12-14T16:03:43.897Z,0.03
2022-12-14T16:06:13.636Z,-0.02
2022-12-14T16:08:49.561Z,-0.08
2022-12-14T16:11:24.449Z,-0.14
2022-12-14T16:13:52.441Z,-0.18
2022-12-14T16:16:21.338Z,-0.18
2022-12-14T16:18:52.843Z,-0.16
2022-12-14T16:21:28.896Z,-0.21
2022-12-14T16:24:00.490Z,-0.25
2022-12-14T16:26:36.651Z,-0.31
2022-12-14T16:29:10.662Z,-0.38
2022-12-14T16:31:39.341Z,-0.41
2022-12-14T16:34:15.186Z,-0.41
2022-12-14T16:37:08.140Z,-0.40
2022-12-14T16:39:39.186Z,-0.46
2022-12-14T16:42:18.340Z,-0.47
2022-12-14T16:44:47.314Z,-0.48
2022-12-14T16:47:50.078Z,-0.56
2022-12-14T16:50:55.677Z,-0.57
2022-12-14T16:53:18.733Z,-0.54
2022-12-14T16:56:02.493Z,-0.56
2022-12-14T16:58:30.739Z,-0.58
2022-12-14T17:01:02.691Z,-0.63
2022-12-14T17:03:32.133Z,-0.69
2022-12-14T17:06:04.364Z,-0.68
2022-12-14T17:08:34.257Z,-0.69
2022-12-14T17:11:03.351Z,-0.74
2022-12-14T17:13:31.690Z,-0.76
2022-12-14T17:16:01.570Z,-0.79
2022-12-14T17:18:32.912Z,-0.81
2022-12-14T17:21:06.351Z,-0.79
2022-12-14T17:23:40.240Z,-0.78
2022-12-14T17:26:24.351Z,-0.83
2022-12-14T17:28:52.384Z,-0.85
2022-12-14T17:31:23.222Z,-0.91
2022-12-14T17:33:52.998Z,-0.91
2022-12-14T17:36:24.535Z,-0.93
2022-12-14T17:38:52.511Z,-0.97
2022-12-14T17:41:26.559Z,-0.99
2022-12-14T17:43:57.590Z,-1.01
2022-12-14T17:46:26.606Z,-1.05
2022-12-14T17:48:54.951Z,-1.11
2022-12-14T17:51:29.159Z,-1.14
2022-12-14T17:54:15.863Z,-1.19
2022-12-14T17:56:56.190Z,-1.23
2022-12-14T17:59:47.259Z,-1.27
2022-12-14T18:02:32.736Z,-1.29
2022-12-14T18:05:08.590Z,-1.32
2022-12-14T18:07:42.604Z,-1.34
2022-12-14T18:10:14.189Z,-1.37
2022-12-14T18:12:42.681Z,-1.37
2022-12-14T18:15:17.632Z,-1.41
2022-12-14T18:17:49.300Z,-1.46
2022-12-14T18:20:17.822Z,-1.57
2022-12-14T18:22:49.620Z,-1.57
2022-12-14T18:25:30.148Z,-1.61
2022-12-14T18:27:58.702Z,-1.73
2022-12-14T18:30:27.230Z,-1.74
2022-12-14T18:32:55.978Z,-1.78
2022-12-14T18:35:27.202Z,-1.80
2022-12-14T18:37:56.490Z,-1.87
2022-12-14T18:40:26.927Z,-1.88
2022-12-14T18:42:55.583Z,-1.85
2022-12-14T18:45:25.399Z,-1.82
2022-12-14T18:47:54.248Z,-1.86
2022-12-14T18:50:23.509Z,-1.87
2022-12-14T18:52:51.763Z,-1.93
2022-12-14T18:55:23.355Z,-2.03
2022-12-14T18:57:53.574Z,-2.07
2022-12-14T19:00:24.084Z,-2.04
2022-12-14T19:02:52.820Z,-2.04
2022-12-14T19:05:26.122Z,-2.03
2022-12-14T19:07:54.489Z,-2.08
2022-12-14T19:10:26.315Z,-2.08
2022-12-14T19:12:54.249Z,-2.13
2022-12-14T19:15:25.017Z,-2.14
2022-12-14T19:17:52.993Z,-2.19
2022-12-14T19:20:21.790Z,-2.23
2022-12-14T19:22:50.032Z,-2.28
2022-12-14T19:25:19.503Z,-2.29
2022-12-14T19:30:37.676Z,-2.27
2022-12-14T19:33:05.817Z,-2.29
2022-12-14T19:35:33.602Z,-2.28
2022-12-14T19:38:01.657Z,-2.28
2022-12-14T19:40:29.508Z,-2.29
2022-12-14T19:43:00.018Z,-2.30
2022-12-14T19:45:28.120Z,-2.31
2022-12-14T19:47:56.138Z,-2.34
2022-12-14T19:50:24.130Z,-2.37
2022-12-14T19:52:52.569Z,-2.39
2022-12-14T19:55:20.458Z,-2.42
2022-12-14T19:57:48.323Z,-2.45
2022-12-14T20:00:18.047Z,-2.49
2022-12-14T20:02:46.019Z,-2.50
2022-12-14T20:05:18.516Z,-2.59
2022-12-14T20:07:46.764Z,-2.70
2022-12-14T20:10:14.697Z,-2.67
2022-12-14T20:12:42.520Z,-2.68
2022-12-14T20:15:10.809Z,-2.76
2022-12-14T20:17:39.963Z,-2.74
2022-12-14T20:20:08.999Z,-2.73
2022-12-14T20:23:17.373Z,-2.71
2022-12-14T20:25:52.378Z,-2.74
2022-12-14T20:28:20.278Z,-2.78
2022-12-14T20:30:49.650Z,-2.81
2022-12-14T20:33:19.223Z,-2.92
2022-12-14T20:35:52.713Z,-2.97
2022-12-14T20:38:21.135Z,-2.94
2022-12-14T20:40:49.674Z,-2.93
2022-12-14T20:43:17.981Z,-2.94
2022-12-14T20:45:46.164Z,-2.99
2022-12-14T20:48:14.742Z,-3.02
2022-12-14T20:50:51.070Z,-2.97
2022-12-14T20:53:21.091Z,-2.96
2022-12-14T20:55:49.183Z,-2.94
2022-12-14T20:58:17.545Z,-2.93
2022-12-14T21:00:48.173Z,-2.95
2022-12-14T21:40:45.320Z,-3.29
2022-12-14T21:43:17.601Z,-3.32
2022-12-14T21:45:54.617Z,-3.37
2022-12-14T21:48:35.911Z,-3.40
2022-12-14T21:52:09.177Z,-3.40
2022-12-14T21:58:39.771Z,-3.43
2022-12-14T22:02:33.334Z,-3.44
2022-12-14T22:05:12.370Z,-3.52
2022-12-14T22:11:00.422Z,-3.59
2022-12-14T22:15:16.047Z,-3.58
2022-12-14T22:21:24.922Z,-3.61
2022-12-14T22:24:37.417Z,-3.61
2022-12-14T22:27:38.487Z,-3.60
2022-12-14T22:30:27.136Z,-3.59
2022-12-14T22:33:03.244Z,-3.61
2022-12-14T22:35:40.608Z,-3.71
2022-12-14T22:38:13.826Z,-3.79
2022-12-14T22:40:58.724Z,-3.74
2022-12-14T22:43:49.343Z,-3.71
2022-12-14T22:46:36.155Z,-3.66
2022-12-14T22:52:49.698Z,-3.85
2022-12-14T22:55:27.299Z,-3.92
2022-12-14T22:58:22.170Z,-3.88
2022-12-14T23:01:22.256Z,-3.81
2022-12-14T23:04:16.405Z,-3.72
2022-12-14T23:07:01.848Z,-3.68
2022-12-14T23:09:58.485Z,-3.70
2022-12-14T23:13:11.436Z,-3.71
2022-12-14T23:16:10.984Z,-3.79
2022-12-14T23:20:17.604Z,-3.88
2022-12-14T23:23:16.155Z,-3.81
2022-12-14T23:26:19.037Z,-3.79
2022-12-14T23:29:18.346Z,-3.79
2022-12-14T23:32:11.270Z,-3.79
2022-12-14T23:35:31.424Z,-3.75
2022-12-14T23:39:02.054Z,-3.76
2022-12-14T23:42:30.791Z,-3.79
2022-12-14T23:46:13.567Z,-3.79
2022-12-14T23:49:37.102Z,-3.80
2022-12-14T23:53:29.564Z,-3.86
